createdAt,value
2023-04-18T00:01:45.966Z,44.81
2023-04-18T00:04:14.187Z,44.91
2023-04-18T00:06:41.206Z,44.68
2023-04-18T00:09:08.076Z,44.98
2023-04-18T00:11:35.182Z,44.99
2023-04-18T00:14:03.361Z,44.94
2023-04-18T00:16:30.649Z,44.81
2023-04-18T00:18:57.548Z,45.21
2023-04-18T00:21:25.839Z,44.73
2023-04-18T00:23:52.799Z,44.93
2023-04-18T00:26:19.915Z,45.21
2023-04-18T00:28:48.150Z,45.07
2023-04-18T00:31:15.088Z,45.42
2023-04-18T00:33:41.885Z,45.59
2023-04-18T00:36:08.923Z,45.23
2023-04-18T00:38:35.918Z,45.70
2023-04-18T00:41:02.658Z,45.85
2023-04-18T00:43:29.517Z,45.67
2023-04-18T00:45:57.292Z,45.55
2023-04-18T00:48:24.935Z,46.17
2023-04-18T00:50:54.438Z,46.25
2023-04-18T00:53:21.688Z,46.59
2023-04-18T00:55:48.620Z,46.33
2023-04-18T00:58:16.554Z,46.26
2023-04-18T01:00:43.744Z,46.43
2023-04-18T01:03:14.451Z,46.78
2023-04-18T01:05:41.503Z,46.58
2023-04-18T01:08:08.455Z,46.71
2023-04-18T01:10:36.125Z,46.60
2023-04-18T01:13:16.994Z,46.46
2023-04-18T01:15:45.784Z,46.72
2023-04-18T01:18:17.075Z,47.28
2023-04-18T01:20:49.823Z,46.83
2023-04-18T01:23:17.737Z,47.83
2023-04-18T01:25:45.707Z,47.57
2023-04-18T01:28:14.624Z,47.41
2023-04-18T01:30:41.744Z,47.93
2023-04-18T01:33:08.383Z,47.65
2023-04-18T01:35:35.420Z,47.98
2023-04-18T01:38:02.470Z,47.68
2023-04-18T01:40:30.161Z,47.72
2023-04-18T01:42:56.867Z,47.75
2023-04-18T01:45:23.788Z,47.44
2023-04-18T01:47:50.601Z,47.84
2023-04-18T01:50:17.774Z,47.85
2023-04-18T01:52:44.651Z,47.72
2023-04-18T01:55:11.623Z,47.57
2023-04-18T01:57:38.402Z,47.40
2023-04-18T02:00:06.663Z,48.04
2023-04-18T02:02:42.493Z,48.20
2023-04-18T02:05:09.650Z,48.27
2023-04-18T02:07:38.921Z,47.80
2023-04-18T02:10:06.228Z,48.25
2023-04-18T02:12:34.316Z,48.84
2023-04-18T02:15:01.149Z,48.42
2023-04-18T02:17:28.837Z,48.25
2023-04-18T02:19:55.853Z,48.58
2023-04-18T02:22:22.531Z,48.15
2023-04-18T02:24:49.240Z,48.10
2023-04-18T02:27:16.120Z,47.98
2023-04-18T02:29:42.922Z,48.66
2023-04-18T02:32:09.833Z,48.31
2023-04-18T02:34:36.946Z,48.32
2023-04-18T02:37:04.688Z,48.03
2023-04-18T02:39:32.491Z,48.37
2023-04-18T02:41:59.152Z,47.83
2023-04-18T02:44:29.017Z,48.29
2023-04-18T02:46:56.125Z,48.18
2023-04-18T02:49:22.870Z,47.50
2023-04-18T02:51:50.059Z,47.87
2023-04-18T02:54:17.605Z,47.34
2023-04-18T02:56:57.041Z,47.36
2023-04-18T02:59:46.714Z,47.73
2023-04-18T03:02:45.972Z,47.38
2023-04-18T03:05:30.006Z,47.83
2023-04-18T03:08:05.285Z,47.44
2023-04-18T03:10:32.883Z,48.01
2023-04-18T03:13:00.062Z,47.34
2023-04-18T03:15:27.669Z,47.74
2023-04-18T03:17:54.633Z,47.57
2023-04-18T03:20:23.661Z,47.69
2023-04-18T03:23:13.083Z,48.29
2023-04-18T03:25:40.126Z,48.37
2023-04-18T03:28:06.761Z,48.53
2023-04-18T03:30:34.676Z,48.69
2023-04-18T03:33:03.092Z,48.59
2023-04-18T03:35:30.906Z,48.82
2023-04-18T03:37:57.956Z,48.49
2023-04-18T03:40:28.457Z,48.88
2023-04-18T03:43:02.458Z,48.36
2023-04-18T03:45:29.434Z,49.06
2023-04-18T03:48:01.094Z,48.58
2023-04-18T03:50:29.147Z,48.71
2023-04-18T03:52:57.033Z,48.88
2023-04-18T03:55:23.777Z,49.46
2023-04-18T03:57:50.874Z,49.25
2023-04-18T04:00:26.223Z,49.60
2023-04-18T04:03:00.519Z,49.16
2023-04-18T04:05:27.908Z,49.69
2023-04-18T04:07:57.821Z,49.63
2023-04-18T04:10:24.494Z,50.18
2023-04-18T04:12:51.615Z,50.30
2023-04-18T04:15:18.754Z,50.75
2023-04-18T04:18:06.719Z,50.77
2023-04-18T04:20:36.060Z,51.37
2023-04-18T04:23:10.086Z,51.75
2023-04-18T04:25:39.197Z,51.59
2023-04-18T04:28:14.508Z,51.92
2023-04-18T04:30:53.167Z,52.35
2023-04-18T04:33:21.710Z,52.15
2023-04-18T04:35:49.691Z,52.11
2023-04-18T04:38:20.067Z,52.05
2023-04-18T04:40:47.716Z,52.70
2023-04-18T04:43:15.644Z,53.12
2023-04-18T04:45:45.322Z,53.08
2023-04-18T04:48:12.646Z,52.68
2023-04-18T04:50:41.625Z,53.34
2023-04-18T04:53:11.852Z,53.14
2023-04-18T04:55:38.953Z,52.97
2023-04-18T04:58:05.720Z,53.40
2023-04-18T05:00:58.724Z,52.72
2023-04-18T05:03:26.877Z,52.59
2023-04-18T05:05:53.943Z,52.90
2023-04-18T05:08:20.728Z,52.88
2023-04-18T05:10:47.689Z,52.67
2023-04-18T05:13:14.372Z,53.16
2023-04-18T05:15:41.159Z,52.66
2023-04-18T05:18:08.295Z,52.53
2023-04-18T05:20:35.192Z,52.93
2023-04-18T05:23:02.061Z,52.75
2023-04-18T05:25:29.910Z,52.60
2023-04-18T05:27:56.771Z,52.80
2023-04-18T05:30:23.520Z,52.32
2023-04-18T05:32:50.459Z,51.70
2023-04-18T05:35:17.347Z,51.84
2023-04-18T05:37:44.046Z,51.80
2023-04-18T05:40:13.033Z,51.38
2023-04-18T05:42:39.970Z,51.42
2023-04-18T05:45:07.238Z,51.24
2023-04-18T05:47:34.109Z,51.40
2023-04-18T05:50:00.957Z,51.61
2023-04-18T05:52:27.890Z,51.45
2023-04-18T05:54:54.660Z,51.88
2023-04-18T05:57:21.411Z,51.49
2023-04-18T05:59:48.149Z,51.89
2023-04-18T06:02:15.410Z,51.22
2023-04-18T06:04:42.760Z,51.07
2023-04-18T06:07:10.811Z,51.49
2023-04-18T06:09:37.607Z,50.84
2023-04-18T06:12:04.519Z,50.81
2023-04-18T06:14:31.300Z,51.27
2023-04-18T06:16:58.512Z,50.96
2023-04-18T06:19:25.257Z,50.35
2023-04-18T06:21:52.732Z,50.33
2023-04-18T06:24:22.102Z,50.54
2023-04-18T06:26:49.076Z,50.76
2023-04-18T06:29:17.938Z,51.20
2023-04-18T06:31:46.730Z,50.88
2023-04-18T06:34:14.428Z,50.84
2023-04-18T06:36:41.340Z,51.27
2023-04-18T06:39:08.544Z,50.71
2023-04-18T06:41:35.346Z,50.31
2023-04-18T06:44:04.083Z,49.82
2023-04-18T06:46:32.643Z,49.42
2023-04-18T06:48:59.934Z,49.45
2023-04-18T06:51:27.581Z,49.28
2023-04-18T06:53:54.600Z,49.10
2023-04-18T06:56:22.526Z,49.21
2023-04-18T06:58:49.855Z,49.02
2023-04-18T07:01:16.764Z,48.91
2023-04-18T07:03:44.252Z,49.52
2023-04-18T07:06:11.301Z,49.57
2023-04-18T07:08:38.426Z,49.75
2023-04-18T07:11:06.599Z,49.98
2023-04-18T07:13:33.610Z,49.85
2023-04-18T07:16:01.790Z,50.10
2023-04-18T07:18:37.201Z,49.78
2023-04-18T07:21:09.160Z,50.20
2023-04-18T07:23:36.074Z,50.14
2023-04-18T07:26:03.385Z,49.65
2023-04-18T07:28:32.134Z,50.15
2023-04-18T07:30:59.627Z,49.82
2023-04-18T07:33:26.618Z,49.97
2023-04-18T07:35:53.398Z,49.50
2023-04-18T07:38:20.565Z,49.30
2023-04-18T07:40:47.485Z,49.42
2023-04-18T07:43:14.770Z,49.08
2023-04-18T07:45:43.380Z,48.89
2023-04-18T07:48:14.228Z,49.07
2023-04-18T07:50:44.797Z,48.81
2023-04-18T07:53:11.657Z,48.14
2023-04-18T07:55:39.291Z,48.47
2023-04-18T07:58:06.137Z,48.21
2023-04-18T08:00:37.097Z,48.34
2023-04-18T08:03:03.927Z,48.28
2023-04-18T08:05:30.940Z,48.14
2023-04-18T08:07:57.707Z,47.63
2023-04-18T08:10:24.567Z,48.04
2023-04-18T08:12:51.457Z,47.71
2023-04-18T08:15:18.348Z,48.11
2023-04-18T08:17:45.332Z,48.93
2023-04-18T08:20:13.125Z,48.32
2023-04-18T08:22:50.440Z,47.98
2023-04-18T08:25:26.890Z,47.61
2023-04-18T08:27:53.603Z,46.65
2023-04-18T08:30:20.561Z,45.58
2023-04-18T08:32:47.429Z,44.93
2023-04-18T08:35:14.171Z,44.41
2023-04-18T08:37:41.125Z,44.67
2023-04-18T08:40:08.309Z,44.24
2023-04-18T08:42:36.734Z,44.44
2023-04-18T08:45:04.294Z,45.29
2023-04-18T08:47:31.369Z,44.72
2023-04-18T08:49:58.540Z,45.38
2023-04-18T08:52:27.286Z,45.89
2023-04-18T08:54:54.036Z,46.22
2023-04-18T08:57:27.199Z,46.17
2023-04-18T08:59:55.411Z,46.57
2023-04-18T09:02:23.457Z,45.97
2023-04-18T09:04:53.104Z,45.99
2023-04-18T09:07:27.796Z,44.69
2023-04-18T09:09:59.297Z,36.28
2023-04-18T09:12:28.352Z,30.52
2023-04-18T09:15:14.118Z,25.89
2023-04-18T09:17:43.588Z,24.63
2023-04-18T09:20:11.842Z,26.92
2023-04-18T09:22:52.972Z,29.16
2023-04-18T09:25:30.192Z,32.05
2023-04-18T09:28:00.990Z,34.22
2023-04-18T09:30:38.062Z,33.45
2023-04-18T09:33:10.126Z,27.81
2023-04-18T09:35:37.993Z,27.50
2023-04-18T09:38:06.126Z,30.23
2023-04-18T09:40:34.311Z,32.51
2023-04-18T09:43:01.372Z,34.87
2023-04-18T09:45:29.246Z,36.40
2023-04-18T09:47:56.518Z,37.70
2023-04-18T09:50:23.440Z,38.09
2023-04-18T09:52:50.294Z,38.62
2023-04-18T09:55:18.797Z,39.45
2023-04-18T09:57:47.712Z,39.91
2023-04-18T10:00:38.200Z,39.95
2023-04-18T10:03:09.984Z,40.74
2023-04-18T10:05:44.151Z,40.96
2023-04-18T10:08:13.467Z,41.55
2023-04-18T10:10:41.255Z,41.23
2023-04-18T10:13:11.142Z,40.78
2023-04-18T10:15:39.079Z,40.68
2023-04-18T10:18:14.224Z,40.37
2023-04-18T10:20:42.058Z,39.72
2023-04-18T10:23:40.714Z,39.83
2023-04-18T10:26:09.567Z,38.28
2023-04-18T10:28:59.713Z,29.23
2023-04-18T10:31:34.560Z,27.35
2023-04-18T10:34:05.597Z,27.48
2023-04-18T10:36:33.472Z,29.92
2023-04-18T10:39:22.950Z,30.54
2023-04-18T10:41:51.512Z,25.41
2023-04-18T10:44:24.915Z,22.97
2023-04-18T10:46:55.049Z,24.02
2023-04-18T10:49:30.248Z,24.00
2023-04-18T10:52:01.803Z,22.61
2023-04-18T10:54:55.231Z,25.36
2023-04-18T10:57:23.225Z,27.50
2023-04-18T10:59:51.968Z,29.98
2023-04-18T11:02:25.655Z,30.30
2023-04-18T11:07:48.549Z,30.65
2023-04-18T11:10:25.673Z,26.58
2023-04-18T11:12:54.027Z,22.76
2023-04-18T11:15:22.902Z,21.03
2023-04-18T11:18:00.203Z,22.01
2023-04-18T11:20:28.693Z,21.71
2023-04-18T11:23:00.896Z,20.42
2023-04-18T11:25:36.826Z,20.17
2023-04-18T11:28:14.336Z,19.23
2023-04-18T11:30:42.285Z,20.35
2023-04-18T11:33:12.245Z,22.35
2023-04-18T11:35:48.307Z,23.52
2023-04-18T11:38:16.153Z,24.07
2023-04-18T11:40:50.775Z,26.25
2023-04-18T11:43:22.789Z,27.47
2023-04-18T11:45:54.587Z,26.95
2023-04-18T11:48:21.601Z,26.78
2023-04-18T11:50:48.533Z,25.97
2023-04-18T11:53:15.312Z,26.07
2023-04-18T11:55:54.075Z,24.77
2023-04-18T11:58:35.840Z,22.56
2023-04-18T12:01:22.028Z,20.20
2023-04-18T12:04:06.931Z,20.31
2023-04-18T12:07:00.975Z,22.15
2023-04-18T12:09:30.826Z,23.55
2023-04-18T12:12:10.869Z,24.94
2023-04-18T12:15:02.242Z,26.64
2023-04-18T12:17:48.540Z,27.98
2023-04-18T12:23:46.244Z,30.08
2023-04-18T12:26:29.229Z,30.24
2023-04-18T12:29:24.457Z,30.67
2023-04-18T12:32:09.630Z,31.62
2023-04-18T12:34:37.348Z,32.22
2023-04-18T12:37:05.092Z,33.06
2023-04-18T12:39:31.859Z,33.85
2023-04-18T12:41:58.640Z,34.30
2023-04-18T12:44:25.707Z,34.96
2023-04-18T12:46:52.505Z,35.40
2023-04-18T12:49:19.791Z,35.38
2023-04-18T12:51:46.622Z,35.30
2023-04-18T12:54:13.722Z,35.26
2023-04-18T12:56:40.727Z,34.73
2023-04-18T12:59:07.442Z,34.38
2023-04-18T13:01:34.228Z,33.85
2023-04-18T13:04:11.808Z,33.91
2023-04-18T13:06:40.087Z,33.55
2023-04-18T13:09:06.815Z,33.49
2023-04-18T13:11:33.584Z,33.97
2023-04-18T13:14:00.401Z,34.08
2023-04-18T13:16:27.109Z,33.79
2023-04-18T13:18:55.735Z,34.02
2023-04-18T13:21:25.227Z,33.72
2023-04-18T13:23:52.252Z,34.03
2023-04-18T13:26:19.081Z,34.57
2023-04-18T13:28:46.590Z,34.98
2023-04-18T13:31:14.514Z,35.33
2023-04-18T13:33:43.161Z,36.28
2023-04-18T13:36:10.064Z,36.09
2023-04-18T13:38:37.461Z,35.63
2023-04-18T13:41:12.187Z,35.96
2023-04-18T13:43:40.245Z,36.22
2023-04-18T13:46:07.487Z,35.96
2023-04-18T13:48:34.683Z,35.68
2023-04-18T13:51:02.814Z,35.66
2023-04-18T13:53:30.858Z,35.34
2023-04-18T13:56:01.275Z,35.28
2023-04-18T13:58:28.232Z,35.84
2023-04-18T14:00:55.100Z,36.07
2023-04-18T14:03:22.095Z,36.06
2023-04-18T14:05:49.074Z,35.91
2023-04-18T14:08:15.991Z,35.30
2023-04-18T14:10:42.793Z,35.09
2023-04-18T14:13:09.443Z,34.81
2023-04-18T14:15:36.575Z,35.17
2023-04-18T14:18:03.812Z,35.39
2023-04-18T14:20:34.554Z,35.61
2023-04-18T14:23:02.119Z,36.01
2023-04-18T14:25:30.009Z,36.31
2023-04-18T14:28:09.668Z,35.92
2023-04-18T14:30:37.066Z,35.64
2023-04-18T14:33:04.526Z,35.59
2023-04-18T14:35:32.013Z,35.91
2023-04-18T14:37:58.867Z,35.41
2023-04-18T14:40:25.636Z,35.14
2023-04-18T14:42:52.770Z,35.56
2023-04-18T14:45:19.664Z,35.63
2023-04-18T14:47:46.799Z,35.91
2023-04-18T14:50:13.794Z,36.07
2023-04-18T14:52:41.285Z,36.19
2023-04-18T14:55:09.507Z,35.98
2023-04-18T14:57:38.048Z,36.01
2023-04-18T15:00:10.019Z,36.93
2023-04-18T15:02:38.006Z,37.00
2023-04-18T15:05:11.597Z,36.20
2023-04-18T15:07:38.730Z,36.22
2023-04-18T15:10:08.608Z,36.25
2023-04-18T15:12:35.606Z,36.10
2023-04-18T15:15:02.673Z,36.11
2023-04-18T15:17:30.357Z,36.39
2023-04-18T15:19:59.277Z,36.41
2023-04-18T15:22:26.584Z,36.94
2023-04-18T15:24:53.531Z,37.19
2023-04-18T15:27:23.027Z,37.64
2023-04-18T15:29:49.810Z,36.90
2023-04-18T15:32:16.854Z,37.11
2023-04-18T15:34:44.021Z,36.83
2023-04-18T15:37:11.232Z,36.55
2023-04-18T15:39:38.757Z,36.56
2023-04-18T15:42:06.334Z,36.40
2023-04-18T15:44:33.369Z,36.17
2023-04-18T15:47:01.980Z,36.03
2023-04-18T15:49:29.283Z,36.26
2023-04-18T15:51:56.992Z,36.66
2023-04-18T15:54:23.868Z,36.50
2023-04-18T15:56:50.944Z,36.77
2023-04-18T15:59:18.367Z,36.86
2023-04-18T16:01:46.156Z,36.93
2023-04-18T16:04:13.545Z,37.43
2023-04-18T16:06:40.825Z,37.06
2023-04-18T16:09:07.747Z,36.08
2023-04-18T16:11:34.932Z,35.85
2023-04-18T16:14:02.026Z,36.66
2023-04-18T16:16:29.689Z,36.21
2023-04-18T16:18:56.821Z,36.86
2023-04-18T16:21:23.836Z,36.62
2023-04-18T16:23:54.949Z,36.89
2023-04-18T16:26:23.991Z,37.01
2023-04-18T16:28:51.395Z,37.07
2023-04-18T16:31:18.547Z,37.28
2023-04-18T16:33:47.302Z,37.16
2023-04-18T16:36:14.976Z,37.39
2023-04-18T16:38:42.625Z,37.51
2023-04-18T16:41:09.842Z,37.84
2023-04-18T16:43:45.301Z,37.84
2023-04-18T16:46:13.948Z,37.94
2023-04-18T16:48:41.816Z,38.19
2023-04-18T16:51:08.672Z,38.12
2023-04-18T16:53:37.101Z,38.24
2023-04-18T16:56:05.691Z,38.41
2023-04-18T16:58:35.988Z,38.80
2023-04-18T17:01:03.397Z,38.90
2023-04-18T17:03:40.004Z,39.09
2023-04-18T17:06:10.246Z,39.02
2023-04-18T17:08:37.497Z,38.57
2023-04-18T17:11:08.891Z,38.39
2023-04-18T17:13:41.914Z,39.53
2023-04-18T17:16:10.218Z,39.29
2023-04-18T17:18:37.461Z,39.15
2023-04-18T17:21:08.246Z,39.42
2023-04-18T17:23:38.417Z,39.92
2023-04-18T17:26:13.027Z,39.55
2023-04-18T17:28:40.388Z,40.25
2023-04-18T17:31:12.422Z,40.45
2023-04-18T17:33:44.549Z,40.57
2023-04-18T17:36:20.269Z,40.67
2023-04-18T17:39:20.563Z,40.75
2023-04-18T17:42:48.956Z,40.85
2023-04-18T17:45:43.553Z,40.79
2023-04-18T17:48:31.212Z,41.36
2023-04-18T17:51:17.923Z,41.58
2023-04-18T17:53:56.129Z,42.05
2023-04-18T17:56:54.915Z,42.35
2023-04-18T17:59:47.377Z,43.02
2023-04-18T18:02:20.786Z,43.37
2023-04-18T18:04:57.878Z,43.33
2023-04-18T18:07:37.947Z,43.34
2023-04-18T18:10:06.434Z,44.17
2023-04-18T18:12:35.805Z,44.26
2023-04-18T18:15:07.494Z,44.25
2023-04-18T18:17:34.764Z,44.40
2023-04-18T18:20:13.278Z,44.73
2023-04-18T18:22:41.769Z,44.92
2023-04-18T18:25:09.362Z,45.15
2023-04-18T18:27:36.991Z,44.65
2023-04-18T18:30:04.461Z,44.86
2023-04-18T18:32:31.395Z,44.97
2023-04-18T18:34:58.533Z,44.92
2023-04-18T18:37:27.145Z,45.29
2023-04-18T18:39:57.120Z,45.21
2023-04-18T18:42:24.025Z,45.30
2023-04-18T18:44:50.687Z,45.64
2023-04-18T18:47:19.961Z,45.22
2023-04-18T18:49:47.465Z,45.54
2023-04-18T18:52:16.382Z,45.33
2023-04-18T18:54:43.068Z,45.80
2023-04-18T18:57:09.947Z,46.05
2023-04-18T18:59:37.046Z,45.86
2023-04-18T19:02:05.428Z,46.19
2023-04-18T19:04:40.156Z,45.91
2023-04-18T19:07:07.320Z,45.97
2023-04-18T19:09:34.817Z,45.89
2023-04-18T19:12:04.132Z,45.90
2023-04-18T19:14:32.229Z,46.13
2023-04-18T19:16:59.745Z,46.29
2023-04-18T19:19:26.870Z,46.32
2023-04-18T19:21:53.708Z,46.63
2023-04-18T19:24:20.927Z,46.41
2023-04-18T19:26:48.576Z,47.07
2023-04-18T19:29:15.752Z,46.58
2023-04-18T19:31:43.820Z,46.49
2023-04-18T19:34:11.821Z,47.07
2023-04-18T19:36:38.715Z,47.45
2023-04-18T19:39:05.756Z,46.90
2023-04-18T19:41:33.209Z,47.15
2023-04-18T19:44:01.029Z,47.01
2023-04-18T19:46:27.744Z,47.43
2023-04-18T19:48:54.813Z,47.93
2023-04-18T19:51:24.428Z,47.35
2023-04-18T19:53:51.273Z,47.76
2023-04-18T19:56:18.161Z,48.12
2023-04-18T19:58:46.242Z,48.39
2023-04-18T20:01:14.835Z,48.11
2023-04-18T20:03:42.840Z,48.80
2023-04-18T20:06:10.216Z,48.55
2023-04-18T20:08:42.258Z,48.32
2023-04-18T20:11:10.464Z,49.15
2023-04-18T20:13:38.161Z,49.07
2023-04-18T20:16:06.005Z,48.50
2023-04-18T20:18:35.696Z,49.18
2023-04-18T20:21:02.737Z,48.57
2023-04-18T20:23:29.452Z,49.11
2023-04-18T20:25:56.292Z,48.76
2023-04-18T20:28:23.067Z,49.08
2023-04-18T20:30:50.412Z,48.96
2023-04-18T20:33:17.378Z,49.10
2023-04-18T20:35:44.797Z,49.26
2023-04-18T20:38:12.329Z,49.24
2023-04-18T20:40:39.824Z,49.45
2023-04-18T20:43:10.265Z,49.39
2023-04-18T20:45:37.732Z,49.74
2023-04-18T20:48:05.516Z,49.46
2023-04-18T20:50:32.511Z,49.76
2023-04-18T20:53:00.710Z,49.95
2023-04-18T20:55:28.501Z,49.45
2023-04-18T20:57:57.862Z,49.70
2023-04-18T21:00:29.111Z,50.02
2023-04-18T21:02:56.430Z,50.34
2023-04-18T21:05:46.246Z,50.14
2023-04-18T21:08:18.325Z,49.60
2023-04-18T21:10:45.765Z,50.41
2023-04-18T21:13:21.185Z,50.50
2023-04-18T21:15:52.011Z,50.44
2023-04-18T21:18:21.140Z,50.18
2023-04-18T21:20:47.849Z,50.14
2023-04-18T21:23:14.558Z,50.67
2023-04-18T21:25:41.280Z,50.91
2023-04-18T21:28:09.410Z,50.92
2023-04-18T21:30:36.201Z,50.89
2023-04-18T21:33:03.914Z,50.74
2023-04-18T21:35:30.804Z,51.04
2023-04-18T21:38:00.490Z,51.11
2023-04-18T21:40:27.243Z,50.78
2023-04-18T21:42:53.963Z,51.03
2023-04-18T21:45:20.789Z,50.67
2023-04-18T21:47:48.086Z,51.11
2023-04-18T21:50:15.496Z,51.10
2023-04-18T21:52:44.582Z,50.94
2023-04-18T21:55:12.941Z,50.84
2023-04-18T21:57:40.217Z,51.16
2023-04-18T22:00:10.335Z,50.93
2023-04-18T22:02:40.083Z,51.20
2023-04-18T22:05:08.117Z,50.87
2023-04-18T22:07:46.130Z,50.99
2023-04-18T22:10:22.826Z,51.09
2023-04-18T22:12:59.614Z,50.96
2023-04-18T22:15:30.392Z,50.99
2023-04-18T22:18:02.263Z,50.68
2023-04-18T22:20:47.532Z,50.81
2023-04-18T22:23:17.831Z,51.12
2023-04-18T22:25:45.098Z,50.94
2023-04-18T22:28:21.680Z,50.96
2023-04-18T22:30:51.842Z,51.16
2023-04-18T22:33:22.540Z,51.23
2023-04-18T22:35:49.781Z,51.04
2023-04-18T22:38:17.309Z,51.37
2023-04-18T22:40:50.216Z,51.29
2023-04-18T22:43:22.961Z,50.82
2023-04-18T22:45:52.733Z,51.34
2023-04-18T22:48:34.770Z,51.50
2023-04-18T22:51:05.085Z,51.09
2023-04-18T22:53:35.070Z,51.78
2023-04-18T22:56:01.903Z,51.63
2023-04-18T22:58:34.920Z,51.60
2023-04-18T23:01:07.776Z,51.44
2023-04-18T23:03:35.030Z,51.61
2023-04-18T23:06:02.234Z,51.20
2023-04-18T23:08:29.191Z,52.06
2023-04-18T23:10:58.049Z,51.77
2023-04-18T23:13:24.850Z,51.58
2023-04-18T23:15:52.436Z,51.39
2023-04-18T23:18:26.855Z,52.04
2023-04-18T23:21:07.114Z,51.91
2023-04-18T23:23:40.808Z,52.22
2023-04-18T23:26:14.867Z,51.97
2023-04-18T23:28:46.003Z,52.32
2023-04-18T23:31:22.455Z,51.87
2023-04-18T23:33:49.572Z,52.21
2023-04-18T23:36:19.886Z,52.31
2023-04-18T23:38:51.147Z,52.37
2023-04-18T23:41:22.456Z,52.29
2023-04-18T23:43:49.810Z,52.73
2023-04-18T23:46:47.872Z,52.20
2023-04-18T23:49:28.632Z,52.13
2023-04-18T23:52:29.344Z,52.57
2023-04-18T23:58:28.717Z,53.03
